sensor_id;sensor_type;location;lat;lon;timestamp;temperature;humidity
58865;DHT22;45702;52.982;6.658;2022-09-09T00:02:04;14.70;99.90
58865;DHT22;45702;52.982;6.658;2022-09-09T00:04:37;14.70;99.90
58865;DHT22;45702;52.982;6.658;2022-09-09T00:07:05;14.70;99.90
58865;DHT22;45702;52.982;6.658;2022-09-09T00:09:40;14.70;99.90
58865;DHT22;45702;52.982;6.658;2022-09-09T00:12:15;14.70;99.90
58865;DHT22;45702;52.982;6.658;2022-09-09T00:14:56;14.60;99.90
58865;DHT22;45702;52.982;6.658;2022-09-09T00:17:35;14.50;99.90
58865;DHT22;45702;52.982;6.658;2022-09-09T00:22:57;14.60;99.90
58865;DHT22;45702;52.982;6.658;2022-09-09T00:26:06;14.50;99.90
58865;DHT22;45702;52.982;6.658;2022-09-09T00:28:52;14.50;99.90
58865;DHT22;45702;52.982;6.658;2022-09-09T00:31:23;14.50;99.90
58865;DHT22;45702;52.982;6.658;2022-09-09T00:33:50;14.50;99.90
58865;DHT22;45702;52.982;6.658;2022-09-09T00:36:27;14.50;99.90
58865;DHT22;45702;52.982;6.658;2022-09-09T00:39:00;14.40;99.90
58865;DHT22;45702;52.982;6.658;2022-09-09T00:41:48;14.40;99.90
58865;DHT22;45702;52.982;6.658;2022-09-09T00:44:33;14.40;99.90
58865;DHT22;45702;52.982;6.658;2022-09-09T00:52:25;14.30;99.90
58865;DHT22;45702;52.982;6.658;2022-09-09T00:57:36;14.30;99.90
58865;DHT22;45702;52.982;6.658;2022-09-09T01:00:30;14.30;99.90
58865;DHT22;45702;52.982;6.658;2022-09-09T01:03:31;14.30;99.90
58865;DHT22;45702;52.982;6.658;2022-09-09T01:11:27;14.20;99.90
58865;DHT22;45702;52.982;6.658;2022-09-09T01:14:15;14.20;99.90
58865;DHT22;45702;52.982;6.658;2022-09-09T01:16:44;14.10;99.90
58865;DHT22;45702;52.982;6.658;2022-09-09T01:19:18;14.20;99.90
58865;DHT22;45702;52.982;6.658;2022-09-09T01:22:02;14.10;99.90
58865;DHT22;45702;52.982;6.658;2022-09-09T01:24:40;14.10;99.90
58865;DHT22;45702;52.982;6.658;2022-09-09T01:27:12;14.10;99.90
58865;DHT22;45702;52.982;6.658;2022-09-09T01:29:38;14.10;99.90
58865;DHT22;45702;52.982;6.658;2022-09-09T01:38:02;14.00;99.90
58865;DHT22;45702;52.982;6.658;2022-09-09T01:40:28;14.10;99.90
58865;DHT22;45702;52.982;6.658;2022-09-09T01:42:54;14.10;99.90
58865;DHT22;45702;52.982;6.658;2022-09-09T01:45:21;14.10;99.90
58865;DHT22;45702;52.982;6.658;2022-09-09T01:47:47;14.10;99.90
58865;DHT22;45702;52.982;6.658;2022-09-09T01:50:15;14.10;99.90
58865;DHT22;45702;52.982;6.658;2022-09-09T01:52:43;14.10;99.90
58865;DHT22;45702;52.982;6.658;2022-09-09T01:55:10;14.10;99.90
58865;DHT22;45702;52.982;6.658;2022-09-09T01:57:39;14.10;99.90
58865;DHT22;45702;52.982;6.658;2022-09-09T02:00:13;14.20;99.90
58865;DHT22;45702;52.982;6.658;2022-09-09T02:08:00;14.30;99.90
58865;DHT22;45702;52.982;6.658;2022-09-09T02:10:32;14.40;99.90
58865;DHT22;45702;52.982;6.658;2022-09-09T02:13:07;14.40;99.90
58865;DHT22;45702;52.982;6.658;2022-09-09T02:15:36;14.40;99.90
58865;DHT22;45702;52.982;6.658;2022-09-09T02:18:07;14.40;99.90
58865;DHT22;45702;52.982;6.658;2022-09-09T02:20:34;14.50;99.90
58865;DHT22;45702;52.982;6.658;2022-09-09T02:23:02;14.50;99.90
58865;DHT22;45702;52.982;6.658;2022-09-09T02:25:29;14.50;99.90
58865;DHT22;45702;52.982;6.658;2022-09-09T02:27:55;14.50;99.90
58865;DHT22;45702;52.982;6.658;2022-09-09T02:30:24;14.60;99.90
58865;DHT22;45702;52.982;6.658;2022-09-09T02:32:52;14.60;99.90
58865;DHT22;45702;52.982;6.658;2022-09-09T02:35:23;14.60;99.90
58865;DHT22;45702;52.982;6.658;2022-09-09T02:37:52;14.60;99.90
58865;DHT22;45702;52.982;6.658;2022-09-09T02:40:20;14.70;99.90
58865;DHT22;45702;52.982;6.658;2022-09-09T02:42:48;14.70;99.90
58865;DHT22;45702;52.982;6.658;2022-09-09T02:45:19;14.70;99.90
58865;DHT22;45702;52.982;6.658;2022-09-09T02:48:09;14.70;99.90
58865;DHT22;45702;52.982;6.658;2022-09-09T02:50:57;14.70;99.90
58865;DHT22;45702;52.982;6.658;2022-09-09T02:53:45;14.80;99.90
58865;DHT22;45702;52.982;6.658;2022-09-09T02:56:18;14.80;99.90
58865;DHT22;45702;52.982;6.658;2022-09-09T02:58:46;14.90;99.90
58865;DHT22;45702;52.982;6.658;2022-09-09T03:01:12;14.80;99.90
58865;DHT22;45702;52.982;6.658;2022-09-09T03:03:38;14.90;99.90
58865;DHT22;45702;52.982;6.658;2022-09-09T03:06:03;15.00;99.90
58865;DHT22;45702;52.982;6.658;2022-09-09T03:08:31;14.90;99.90
58865;DHT22;45702;52.982;6.658;2022-09-09T03:10:58;14.90;99.90
58865;DHT22;45702;52.982;6.658;2022-09-09T03:13:26;14.90;99.90
58865;DHT22;45702;52.982;6.658;2022-09-09T03:15:52;14.90;99.90
58865;DHT22;45702;52.982;6.658;2022-09-09T03:18:18;14.90;99.90
58865;DHT22;45702;52.982;6.658;2022-09-09T03:20:43;14.90;99.90
58865;DHT22;45702;52.982;6.658;2022-09-09T03:23:09;14.90;99.90
58865;DHT22;45702;52.982;6.658;2022-09-09T03:25:35;14.90;99.90
58865;DHT22;45702;52.982;6.658;2022-09-09T03:28:01;14.90;99.90
58865;DHT22;45702;52.982;6.658;2022-09-09T03:30:27;14.90;99.90
58865;DHT22;45702;52.982;6.658;2022-09-09T03:32:53;14.90;99.90
58865;DHT22;45702;52.982;6.658;2022-09-09T03:35:20;14.90;99.90
58865;DHT22;45702;52.982;6.658;2022-09-09T03:37:46;14.90;99.90
58865;DHT22;45702;52.982;6.658;2022-09-09T03:40:12;14.90;99.90
58865;DHT22;45702;52.982;6.658;2022-09-09T03:42:38;14.90;99.90
58865;DHT22;45702;52.982;6.658;2022-09-09T03:45:05;15.00;99.90
58865;DHT22;45702;52.982;6.658;2022-09-09T03:47:32;14.90;99.90
58865;DHT22;45702;52.982;6.658;2022-09-09T03:49:57;14.90;99.90
58865;DHT22;45702;52.982;6.658;2022-09-09T03:52:23;14.90;99.90
58865;DHT22;45702;52.982;6.658;2022-09-09T03:54:51;14.90;99.90
58865;DHT22;45702;52.982;6.658;2022-09-09T03:57:18;15.00;99.90
58865;DHT22;45702;52.982;6.658;2022-09-09T03:59:44;14.90;99.90
58865;DHT22;45702;52.982;6.658;2022-09-09T04:02:11;14.90;99.90
58865;DHT22;45702;52.982;6.658;2022-09-09T04:04:36;14.90;99.90
58865;DHT22;45702;52.982;6.658;2022-09-09T04:07:07;14.90;99.90
58865;DHT22;45702;52.982;6.658;2022-09-09T04:09:34;14.90;99.90
58865;DHT22;45702;52.982;6.658;2022-09-09T04:12:00;14.90;99.90
58865;DHT22;45702;52.982;6.658;2022-09-09T04:14:26;14.90;99.90
58865;DHT22;45702;52.982;6.658;2022-09-09T04:16:55;14.80;99.90
58865;DHT22;45702;52.982;6.658;2022-09-09T04:19:23;14.80;99.90
58865;DHT22;45702;52.982;6.658;2022-09-09T04:21:49;14.80;99.90
58865;DHT22;45702;52.982;6.658;2022-09-09T04:24:17;14.80;99.90
58865;DHT22;45702;52.982;6.658;2022-09-09T04:26:43;14.80;99.90
58865;DHT22;45702;52.982;6.658;2022-09-09T04:29:09;14.80;99.90
58865;DHT22;45702;52.982;6.658;2022-09-09T04:31:35;14.80;99.90
58865;DHT22;45702;52.982;6.658;2022-09-09T04:34:01;14.80;99.90
58865;DHT22;45702;52.982;6.658;2022-09-09T04:36:31;14.80;99.90
58865;DHT22;45702;52.982;6.658;2022-09-09T04:38:57;14.80;99.90
58865;DHT22;45702;52.982;6.658;2022-09-09T04:41:23;14.80;99.90
58865;DHT22;45702;52.982;6.658;2022-09-09T04:43:49;14.80;99.90
58865;DHT22;45702;52.982;6.658;2022-09-09T04:46:15;14.80;99.90
58865;DHT22;45702;52.982;6.658;2022-09-09T04:48:43;14.80;99.90
58865;DHT22;45702;52.982;6.658;2022-09-09T04:51:12;14.70;99.90
58865;DHT22;45702;52.982;6.658;2022-09-09T04:53:38;14.70;99.90
58865;DHT22;45702;52.982;6.658;2022-09-09T04:56:13;14.70;99.90
58865;DHT22;45702;52.982;6.658;2022-09-09T04:58:39;14.70;99.90
58865;DHT22;45702;52.982;6.658;2022-09-09T05:01:08;14.70;99.90
58865;DHT22;45702;52.982;6.658;2022-09-09T05:03:34;14.70;99.90
58865;DHT22;45702;52.982;6.658;2022-09-09T05:06:11;14.70;99.90
58865;DHT22;45702;52.982;6.658;2022-09-09T05:08:38;14.70;99.90
58865;DHT22;45702;52.982;6.658;2022-09-09T05:11:19;14.70;99.90
58865;DHT22;45702;52.982;6.658;2022-09-09T05:13:46;14.70;99.90
58865;DHT22;45702;52.982;6.658;2022-09-09T05:16:13;14.70;99.90
58865;DHT22;45702;52.982;6.658;2022-09-09T05:18:39;14.70;99.90
58865;DHT22;45702;52.982;6.658;2022-09-09T05:21:06;14.60;99.90
58865;DHT22;45702;52.982;6.658;2022-09-09T05:23:35;14.60;99.90
58865;DHT22;45702;52.982;6.658;2022-09-09T05:26:01;14.60;99.90
58865;DHT22;45702;52.982;6.658;2022-09-09T05:28:27;14.60;99.90
58865;DHT22;45702;52.982;6.658;2022-09-09T05:31:07;14.60;99.90
58865;DHT22;45702;52.982;6.658;2022-09-09T05:33:34;14.60;99.90
58865;DHT22;45702;52.982;6.658;2022-09-09T05:38:29;14.60;99.90
58865;DHT22;45702;52.982;6.658;2022-09-09T05:40:55;14.60;99.90
58865;DHT22;45702;52.982;6.658;2022-09-09T05:43:22;14.60;99.90
58865;DHT22;45702;52.982;6.658;2022-09-09T05:45:58;14.60;99.90
58865;DHT22;45702;52.982;6.658;2022-09-09T05:48:28;14.60;99.90
58865;DHT22;45702;52.982;6.658;2022-09-09T05:50:55;14.60;99.90
58865;DHT22;45702;52.982;6.658;2022-09-09T05:53:21;14.60;99.90
58865;DHT22;45702;52.982;6.658;2022-09-09T05:55:46;14.60;99.90
58865;DHT22;45702;52.982;6.658;2022-09-09T05:58:13;14.60;99.90
58865;DHT22;45702;52.982;6.658;2022-09-09T06:00:40;14.60;99.90
58865;DHT22;45702;52.982;6.658;2022-09-09T06:03:05;14.60;99.90
58865;DHT22;45702;52.982;6.658;2022-09-09T06:05:31;14.60;99.90
58865;DHT22;45702;52.982;6.658;2022-09-09T06:07:56;14.60;99.90
58865;DHT22;45702;52.982;6.658;2022-09-09T06:10:22;14.60;99.90
58865;DHT22;45702;52.982;6.658;2022-09-09T06:12:48;14.60;99.90
58865;DHT22;45702;52.982;6.658;2022-09-09T06:15:14;14.60;99.90
58865;DHT22;45702;52.982;6.658;2022-09-09T06:17:39;14.60;99.90
58865;DHT22;45702;52.982;6.658;2022-09-09T06:20:07;14.70;99.90
58865;DHT22;45702;52.982;6.658;2022-09-09T06:22:34;14.70;99.90
58865;DHT22;45702;52.982;6.658;2022-09-09T06:25:00;14.80;99.90
58865;DHT22;45702;52.982;6.658;2022-09-09T06:27:27;14.70;99.90
58865;DHT22;45702;52.982;6.658;2022-09-09T06:29:53;14.70;99.90
58865;DHT22;45702;52.982;6.658;2022-09-09T06:32:19;14.70;99.90
58865;DHT22;45702;52.982;6.658;2022-09-09T06:34:45;14.70;99.90
58865;DHT22;45702;52.982;6.658;2022-09-09T06:37:10;14.80;99.90
58865;DHT22;45702;52.982;6.658;2022-09-09T06:39:36;14.80;99.90
58865;DHT22;45702;52.982;6.658;2022-09-09T06:42:02;14.80;99.90
58865;DHT22;45702;52.982;6.658;2022-09-09T06:44:28;14.80;99.90
58865;DHT22;45702;52.982;6.658;2022-09-09T06:47:20;14.90;99.90
58865;DHT22;45702;52.982;6.658;2022-09-09T06:50:08;14.90;99.90
58865;DHT22;45702;52.982;6.658;2022-09-09T06:52:35;14.90;99.90
58865;DHT22;45702;52.982;6.658;2022-09-09T06:55:01;14.90;99.90
58865;DHT22;45702;52.982;6.658;2022-09-09T06:57:28;15.00;99.90
58865;DHT22;45702;52.982;6.658;2022-09-09T06:59:53;15.00;99.90
58865;DHT22;45702;52.982;6.658;2022-09-09T07:02:19;15.00;99.90
58865;DHT22;45702;52.982;6.658;2022-09-09T07:04:45;15.10;99.90
58865;DHT22;45702;52.982;6.658;2022-09-09T07:07:11;15.10;99.90
58865;DHT22;45702;52.982;6.658;2022-09-09T07:09:39;15.10;99.90
58865;DHT22;45702;52.982;6.658;2022-09-09T07:12:06;15.20;99.90
58865;DHT22;45702;52.982;6.658;2022-09-09T07:14:32;15.20;99.90
58865;DHT22;45702;52.982;6.658;2022-09-09T07:16:59;15.20;99.90
58865;DHT22;45702;52.982;6.658;2022-09-09T07:19:25;15.30;99.90
58865;DHT22;45702;52.982;6.658;2022-09-09T07:21:51;15.30;99.90
58865;DHT22;45702;52.982;6.658;2022-09-09T07:24:17;15.30;99.90
58865;DHT22;45702;52.982;6.658;2022-09-09T07:26:42;15.40;99.90
58865;DHT22;45702;52.982;6.658;2022-09-09T07:29:09;15.40;99.90
58865;DHT22;45702;52.982;6.658;2022-09-09T07:31:37;15.50;99.90
58865;DHT22;45702;52.982;6.658;2022-09-09T07:34:04;15.50;99.90
58865;DHT22;45702;52.982;6.658;2022-09-09T07:36:32;15.50;99.90
58865;DHT22;45702;52.982;6.658;2022-09-09T07:39:01;15.60;99.90
58865;DHT22;45702;52.982;6.658;2022-09-09T07:41:28;15.60;99.90
58865;DHT22;45702;52.982;6.658;2022-09-09T07:43:55;15.60;99.90
58865;DHT22;45702;52.982;6.658;2022-09-09T07:46:23;15.60;99.90
58865;DHT22;45702;52.982;6.658;2022-09-09T07:48:55;15.70;99.90
58865;DHT22;45702;52.982;6.658;2022-09-09T07:51:30;15.70;99.90
58865;DHT22;45702;52.982;6.658;2022-09-09T07:54:07;15.80;99.90
58865;DHT22;45702;52.982;6.658;2022-09-09T07:56:35;15.80;99.90
58865;DHT22;45702;52.982;6.658;2022-09-09T07:59:01;15.90;99.90
58865;DHT22;45702;52.982;6.658;2022-09-09T08:03:58;16.00;99.90
58865;DHT22;45702;52.982;6.658;2022-09-09T08:06:29;16.00;99.90
58865;DHT22;45702;52.982;6.658;2022-09-09T08:08:55;16.10;99.90
58865;DHT22;45702;52.982;6.658;2022-09-09T08:11:23;16.20;99.90
58865;DHT22;45702;52.982;6.658;2022-09-09T08:13:50;16.30;99.90
58865;DHT22;45702;52.982;6.658;2022-09-09T08:16:19;16.20;99.90
58865;DHT22;45702;52.982;6.658;2022-09-09T08:18:49;16.20;99.90
58865;DHT22;45702;52.982;6.658;2022-09-09T08:21:17;16.30;99.90
58865;DHT22;45702;52.982;6.658;2022-09-09T08:23:45;16.30;99.90
58865;DHT22;45702;52.982;6.658;2022-09-09T08:26:14;16.40;99.90
58865;DHT22;45702;52.982;6.658;2022-09-09T08:28:41;16.50;99.90
58865;DHT22;45702;52.982;6.658;2022-09-09T08:31:15;16.70;99.90
58865;DHT22;45702;52.982;6.658;2022-09-09T08:33:42;16.80;99.90
58865;DHT22;45702;52.982;6.658;2022-09-09T08:36:11;16.90;99.90
58865;DHT22;45702;52.982;6.658;2022-09-09T08:38:37;16.90;99.90
58865;DHT22;45702;52.982;6.658;2022-09-09T08:43:50;17.00;99.90
58865;DHT22;45702;52.982;6.658;2022-09-09T08:48:50;17.20;99.90
58865;DHT22;45702;52.982;6.658;2022-09-09T08:51:19;17.20;99.90
58865;DHT22;45702;52.982;6.658;2022-09-09T08:53:49;17.20;99.90
58865;DHT22;45702;52.982;6.658;2022-09-09T08:56:23;17.20;99.90
58865;DHT22;45702;52.982;6.658;2022-09-09T08:58:52;17.30;99.90
58865;DHT22;45702;52.982;6.658;2022-09-09T09:04:32;17.60;99.90
58865;DHT22;45702;52.982;6.658;2022-09-09T09:09:50;17.50;99.90
58865;DHT22;45702;52.982;6.658;2022-09-09T09:12:21;17.60;99.90
58865;DHT22;45702;52.982;6.658;2022-09-09T09:14:49;17.60;99.90
58865;DHT22;45702;52.982;6.658;2022-09-09T09:17:16;17.60;99.90
58865;DHT22;45702;52.982;6.658;2022-09-09T09:19:44;17.70;99.90
58865;DHT22;45702;52.982;6.658;2022-09-09T09:29:54;18.10;99.90
58865;DHT22;45702;52.982;6.658;2022-09-09T09:32:24;18.30;99.90
58865;DHT22;45702;52.982;6.658;2022-09-09T09:34:57;18.30;99.90
58865;DHT22;45702;52.982;6.658;2022-09-09T09:37:29;18.30;99.90
58865;DHT22;45702;52.982;6.658;2022-09-09T09:39:55;18.30;99.90
58865;DHT22;45702;52.982;6.658;2022-09-09T09:42:21;18.30;99.90
58865;DHT22;45702;52.982;6.658;2022-09-09T09:44:47;18.30;99.90
58865;DHT22;45702;52.982;6.658;2022-09-09T09:47:21;18.40;99.90
58865;DHT22;45702;52.982;6.658;2022-09-09T09:49:58;18.50;99.90
58865;DHT22;45702;52.982;6.658;2022-09-09T09:52:29;18.60;99.90
58865;DHT22;45702;52.982;6.658;2022-09-09T09:54:57;18.70;99.90
58865;DHT22;45702;52.982;6.658;2022-09-09T09:57:29;18.80;99.90
58865;DHT22;45702;52.982;6.658;2022-09-09T10:00:19;19.00;99.90
58865;DHT22;45702;52.982;6.658;2022-09-09T10:02:46;19.10;99.90
58865;DHT22;45702;52.982;6.658;2022-09-09T10:05:21;19.20;99.90
58865;DHT22;45702;52.982;6.658;2022-09-09T10:08:12;19.30;99.90
58865;DHT22;45702;52.982;6.658;2022-09-09T10:13:37;19.30;96.70
58865;DHT22;45702;52.982;6.658;2022-09-09T10:19:15;19.20;97.60
58865;DHT22;45702;52.982;6.658;2022-09-09T10:30:26;19.20;96.00
58865;DHT22;45702;52.982;6.658;2022-09-09T10:33:12;19.20;95.80
58865;DHT22;45702;52.982;6.658;2022-09-09T10:36:29;19.20;96.00
58865;DHT22;45702;52.982;6.658;2022-09-09T10:38:45;19.30;96.50
58865;DHT22;45702;52.982;6.658;2022-09-09T10:41:23;19.50;96.70
58865;DHT22;45702;52.982;6.658;2022-09-09T10:55:22;19.60;95.40
58865;DHT22;45702;52.982;6.658;2022-09-09T10:57:52;19.60;95.40
58865;DHT22;45702;52.982;6.658;2022-09-09T11:00:38;19.60;95.50
58865;DHT22;45702;52.982;6.658;2022-09-09T11:03:04;19.50;95.30
58865;DHT22;45702;52.982;6.658;2022-09-09T11:05:58;19.60;95.60
58865;DHT22;45702;52.982;6.658;2022-09-09T11:08:30;19.50;95.30
58865;DHT22;45702;52.982;6.658;2022-09-09T11:13:57;19.60;94.10
58865;DHT22;45702;52.982;6.658;2022-09-09T11:16:50;19.80;94.20
58865;DHT22;45702;52.982;6.658;2022-09-09T11:19:40;20.10;94.30
58865;DHT22;45702;52.982;6.658;2022-09-09T11:24:54;20.30;92.60
58865;DHT22;45702;52.982;6.658;2022-09-09T11:38:27;20.20;90.20
58865;DHT22;45702;52.982;6.658;2022-09-09T11:41:02;20.10;90.80
58865;DHT22;45702;52.982;6.658;2022-09-09T11:43:33;20.10;91.20
58865;DHT22;45702;52.982;6.658;2022-09-09T11:46:04;20.10;91.30
58865;DHT22;45702;52.982;6.658;2022-09-09T11:48:45;20.20;91.10
58865;DHT22;45702;52.982;6.658;2022-09-09T11:51:25;20.30;91.20
58865;DHT22;45702;52.982;6.658;2022-09-09T11:54:02;20.40;90.80
58865;DHT22;45702;52.982;6.658;2022-09-09T11:56:30;20.30;90.30
58865;DHT22;45702;52.982;6.658;2022-09-09T11:59:03;20.20;90.20
58865;DHT22;45702;52.982;6.658;2022-09-09T12:06:48;20.30;91.10
58865;DHT22;45702;52.982;6.658;2022-09-09T12:12:23;20.40;91.00
58865;DHT22;45702;52.982;6.658;2022-09-09T12:17:27;20.60;90.70
58865;DHT22;45702;52.982;6.658;2022-09-09T12:20:20;20.60;90.60
58865;DHT22;45702;52.982;6.658;2022-09-09T12:26:22;20.60;88.70
58865;DHT22;45702;52.982;6.658;2022-09-09T12:31:48;20.50;89.00
58865;DHT22;45702;52.982;6.658;2022-09-09T12:34:38;20.50;88.90
58865;DHT22;45702;52.982;6.658;2022-09-09T12:39:58;20.60;89.60
58865;DHT22;45702;52.982;6.658;2022-09-09T12:42:25;20.60;89.10
58865;DHT22;45702;52.982;6.658;2022-09-09T12:45:00;20.60;89.60
58865;DHT22;45702;52.982;6.658;2022-09-09T12:49:56;20.60;86.10
58865;DHT22;45702;52.982;6.658;2022-09-09T12:52:32;20.60;87.40
58865;DHT22;45702;52.982;6.658;2022-09-09T12:55:01;20.80;87.70
58865;DHT22;45702;52.982;6.658;2022-09-09T12:57:33;20.80;87.70
58865;DHT22;45702;52.982;6.658;2022-09-09T13:00:07;20.90;88.50
58865;DHT22;45702;52.982;6.658;2022-09-09T13:02:35;21.00;88.40
58865;DHT22;45702;52.982;6.658;2022-09-09T13:05:15;21.00;87.90
58865;DHT22;45702;52.982;6.658;2022-09-09T13:07:42;21.00;87.30
58865;DHT22;45702;52.982;6.658;2022-09-09T13:10:12;21.00;85.90
58865;DHT22;45702;52.982;6.658;2022-09-09T13:12:38;20.90;85.10
58865;DHT22;45702;52.982;6.658;2022-09-09T13:15:16;20.80;85.30
58865;DHT22;45702;52.982;6.658;2022-09-09T13:17:50;20.70;85.10
58865;DHT22;45702;52.982;6.658;2022-09-09T13:20:18;20.60;85.30
58865;DHT22;45702;52.982;6.658;2022-09-09T13:22:44;20.50;87.30
58865;DHT22;45702;52.982;6.658;2022-09-09T13:27:38;19.90;91.20
58865;DHT22;45702;52.982;6.658;2022-09-09T13:30:24;19.60;93.00
58865;DHT22;45702;52.982;6.658;2022-09-09T13:33:23;19.40;94.10
58865;DHT22;45702;52.982;6.658;2022-09-09T13:36:15;19.30;95.50
58865;DHT22;45702;52.982;6.658;2022-09-09T13:38:55;19.20;96.20
58865;DHT22;45702;52.982;6.658;2022-09-09T13:41:30;19.20;96.90
58865;DHT22;45702;52.982;6.658;2022-09-09T13:43:56;19.10;97.60
58865;DHT22;45702;52.982;6.658;2022-09-09T13:46:37;19.20;98.40
58865;DHT22;45702;52.982;6.658;2022-09-09T13:51:41;19.30;97.90
58865;DHT22;45702;52.982;6.658;2022-09-09T13:54:11;19.30;97.60
58865;DHT22;45702;52.982;6.658;2022-09-09T13:56:39;19.30;97.70
58865;DHT22;45702;52.982;6.658;2022-09-09T13:59:06;19.40;97.70
58865;DHT22;45702;52.982;6.658;2022-09-09T14:01:34;19.30;97.90
58865;DHT22;45702;52.982;6.658;2022-09-09T14:04:00;19.40;98.30
58865;DHT22;45702;52.982;6.658;2022-09-09T14:06:26;19.30;98.60
58865;DHT22;45702;52.982;6.658;2022-09-09T14:08:52;19.20;98.90
58865;DHT22;45702;52.982;6.658;2022-09-09T14:11:20;19.10;98.90
58865;DHT22;45702;52.982;6.658;2022-09-09T14:13:50;19.00;99.10
58865;DHT22;45702;52.982;6.658;2022-09-09T14:16:17;18.90;99.50
58865;DHT22;45702;52.982;6.658;2022-09-09T14:18:43;18.80;99.80
58865;DHT22;45702;52.982;6.658;2022-09-09T14:21:10;18.80;99.90
58865;DHT22;45702;52.982;6.658;2022-09-09T14:23:36;18.90;99.90
58865;DHT22;45702;52.982;6.658;2022-09-09T14:26:04;19.00;99.90
58865;DHT22;45702;52.982;6.658;2022-09-09T14:28:30;19.10;99.90
58865;DHT22;45702;52.982;6.658;2022-09-09T14:31:02;19.20;99.90
58865;DHT22;45702;52.982;6.658;2022-09-09T14:33:29;19.30;99.90
58865;DHT22;45702;52.982;6.658;2022-09-09T14:36:03;19.40;99.90
58865;DHT22;45702;52.982;6.658;2022-09-09T14:38:30;19.40;99.30
58865;DHT22;45702;52.982;6.658;2022-09-09T14:40:56;19.40;98.10
58865;DHT22;45702;52.982;6.658;2022-09-09T14:43:24;19.30;97.90
58865;DHT22;45702;52.982;6.658;2022-09-09T14:45:49;19.30;97.60
58865;DHT22;45702;52.982;6.658;2022-09-09T14:48:17;19.40;97.50
58865;DHT22;45702;52.982;6.658;2022-09-09T14:50:43;19.40;97.90
58865;DHT22;45702;52.982;6.658;2022-09-09T14:53:09;19.50;97.70
58865;DHT22;45702;52.982;6.658;2022-09-09T14:55:36;19.60;97.60
58865;DHT22;45702;52.982;6.658;2022-09-09T14:58:03;19.70;97.20
58865;DHT22;45702;52.982;6.658;2022-09-09T15:00:29;19.80;96.10
58865;DHT22;45702;52.982;6.658;2022-09-09T15:02:55;19.80;95.20
58865;DHT22;45702;52.982;6.658;2022-09-09T15:05:21;19.80;95.60
58865;DHT22;45702;52.982;6.658;2022-09-09T15:07:47;19.90;95.90
58865;DHT22;45702;52.982;6.658;2022-09-09T15:10:14;19.90;95.40
58865;DHT22;45702;52.982;6.658;2022-09-09T15:12:39;19.90;95.40
58865;DHT22;45702;52.982;6.658;2022-09-09T15:15:07;19.80;95.80
58865;DHT22;45702;52.982;6.658;2022-09-09T15:17:33;19.70;95.20
58865;DHT22;45702;52.982;6.658;2022-09-09T15:19:59;19.60;95.20
58865;DHT22;45702;52.982;6.658;2022-09-09T15:22:24;19.50;95.30
58865;DHT22;45702;52.982;6.658;2022-09-09T15:24:50;19.40;95.60
58865;DHT22;45702;52.982;6.658;2022-09-09T15:27:16;19.30;95.40
58865;DHT22;45702;52.982;6.658;2022-09-09T15:29:42;19.60;95.30
58865;DHT22;45702;52.982;6.658;2022-09-09T15:32:09;20.50;94.20
58865;DHT22;45702;52.982;6.658;2022-09-09T15:34:35;21.10;92.20
58865;DHT22;45702;52.982;6.658;2022-09-09T15:37:00;21.70;90.90
58865;DHT22;45702;52.982;6.658;2022-09-09T15:39:26;21.70;89.70
58865;DHT22;45702;52.982;6.658;2022-09-09T15:41:52;21.50;90.20
58865;DHT22;45702;52.982;6.658;2022-09-09T15:44:18;21.40;90.70
58865;DHT22;45702;52.982;6.658;2022-09-09T15:46:52;21.10;90.30
58865;DHT22;45702;52.982;6.658;2022-09-09T15:49:23;20.70;90.60
58865;DHT22;45702;52.982;6.658;2022-09-09T15:51:56;20.80;90.70
58865;DHT22;45702;52.982;6.658;2022-09-09T15:54:24;21.10;90.00
58865;DHT22;45702;52.982;6.658;2022-09-09T15:56:52;21.00;90.00
58865;DHT22;45702;52.982;6.658;2022-09-09T15:59:20;20.70;90.30
58865;DHT22;45702;52.982;6.658;2022-09-09T16:01:45;20.50;90.60
58865;DHT22;45702;52.982;6.658;2022-09-09T16:04:11;20.30;91.10
58865;DHT22;45702;52.982;6.658;2022-09-09T16:06:37;20.10;91.40
58865;DHT22;45702;52.982;6.658;2022-09-09T16:09:05;20.00;91.90
58865;DHT22;45702;52.982;6.658;2022-09-09T16:11:35;19.90;92.40
58865;DHT22;45702;52.982;6.658;2022-09-09T16:14:01;19.80;92.80
58865;DHT22;45702;52.982;6.658;2022-09-09T16:16:29;19.70;93.40
58865;DHT22;45702;52.982;6.658;2022-09-09T16:18:57;19.60;93.90
58865;DHT22;45702;52.982;6.658;2022-09-09T16:21:49;19.40;94.20
58865;DHT22;45702;52.982;6.658;2022-09-09T16:24:17;19.30;94.40
58865;DHT22;45702;52.982;6.658;2022-09-09T16:26:47;19.10;94.70
58865;DHT22;45702;52.982;6.658;2022-09-09T16:29:14;19.00;95.00
58865;DHT22;45702;52.982;6.658;2022-09-09T16:31:41;18.90;95.10
58865;DHT22;45702;52.982;6.658;2022-09-09T16:34:07;18.80;95.30
58865;DHT22;45702;52.982;6.658;2022-09-09T16:36:34;18.70;95.70
58865;DHT22;45702;52.982;6.658;2022-09-09T16:39:03;18.60;96.00
58865;DHT22;45702;52.982;6.658;2022-09-09T16:41:30;18.60;96.10
58865;DHT22;45702;52.982;6.658;2022-09-09T16:43:58;18.80;96.50
58865;DHT22;45702;52.982;6.658;2022-09-09T16:46:26;19.30;96.10
58865;DHT22;45702;52.982;6.658;2022-09-09T16:48:53;19.70;95.30
58865;DHT22;45702;52.982;6.658;2022-09-09T16:51:25;19.90;94.70
58865;DHT22;45702;52.982;6.658;2022-09-09T16:53:53;19.90;94.60
58865;DHT22;45702;52.982;6.658;2022-09-09T16:56:23;19.80;94.50
58865;DHT22;45702;52.982;6.658;2022-09-09T16:58:57;19.70;94.70
58865;DHT22;45702;52.982;6.658;2022-09-09T17:01:29;19.60;94.80
58865;DHT22;45702;52.982;6.658;2022-09-09T17:03:58;19.50;94.90
58865;DHT22;45702;52.982;6.658;2022-09-09T17:06:24;19.30;94.90
58865;DHT22;45702;52.982;6.658;2022-09-09T17:09:14;19.20;95.20
58865;DHT22;45702;52.982;6.658;2022-09-09T17:11:40;19.20;95.50
58865;DHT22;45702;52.982;6.658;2022-09-09T17:14:08;19.00;95.90
58865;DHT22;45702;52.982;6.658;2022-09-09T17:16:36;19.00;95.90
58865;DHT22;45702;52.982;6.658;2022-09-09T17:19:04;18.90;96.10
58865;DHT22;45702;52.982;6.658;2022-09-09T17:21:32;18.80;96.20
58865;DHT22;45702;52.982;6.658;2022-09-09T17:23:58;18.70;96.50
58865;DHT22;45702;52.982;6.658;2022-09-09T17:26:27;18.70;96.60
58865;DHT22;45702;52.982;6.658;2022-09-09T17:28:54;18.60;96.80
58865;DHT22;45702;52.982;6.658;2022-09-09T17:31:22;18.60;96.90
58865;DHT22;45702;52.982;6.658;2022-09-09T17:33:49;18.50;96.90
58865;DHT22;45702;52.982;6.658;2022-09-09T17:36:23;18.50;97.00
58865;DHT22;45702;52.982;6.658;2022-09-09T17:38:49;18.40;97.10
58865;DHT22;45702;52.982;6.658;2022-09-09T17:41:21;18.40;97.30
58865;DHT22;45702;52.982;6.658;2022-09-09T17:43:48;18.30;97.40
58865;DHT22;45702;52.982;6.658;2022-09-09T17:48:52;18.20;97.60
58865;DHT22;45702;52.982;6.658;2022-09-09T17:51:21;18.20;97.70
58865;DHT22;45702;52.982;6.658;2022-09-09T17:53:51;18.20;97.90